Time;durP1;ratioP1;P1;durP2;ratioP2;P2;SDS_P1;SDS_P2;PMS_P1;PMS_P2;Temp;Humidity;BMP_temperature;BMP_pressure;BME280_temperature;BME280_humidity;BME280_pressure;Samples;Min_cycle;Max_cycle;Signal;HPM_P1;HPM_P2
2022/11/07 00:00:55;;;;;;;37.00;28.55;;;23.70;90.60;;;;;;1835965;77;21154;-77
2022/11/07 00:03:27;;;;;;;38.88;31.48;;;23.60;90.40;;;;;;1841443;77;21173;-75
2022/11/07 00:05:58;;;;;;;42.05;30.70;;;23.70;90.50;;;;;;1840096;77;21131;-76
2022/11/07 00:08:34;;;;;;;39.13;29.45;;;23.70;90.40;;;;;;1854092;77;21115;-77
2022/11/07 00:11:04;;;;;;;44.85;29.72;;;23.70;90.60;;;;;;1837792;77;21171;-76
2022/11/07 00:13:36;;;;;;;38.50;28.23;;;23.90;91.00;;;;;;1836338;77;21210;-77
2022/11/07 00:16:09;;;;;;;35.33;29.40;;;23.90;90.60;;;;;;1840215;77;21174;-77
2022/11/07 00:18:40;;;;;;;32.20;26.20;;;23.80;90.70;;;;;;1855095;76;21214;-76
2022/11/07 00:21:13;;;;;;;39.35;27.20;;;23.90;90.50;;;;;;1850053;76;21540;-75
2022/11/07 00:23:44;;;;;;;35.03;26.23;;;23.90;90.50;;;;;;1850048;76;21166;-75
2022/11/07 00:26:15;;;;;;;31.85;26.12;;;24.00;90.60;;;;;;1833725;76;21225;-76
2022/11/07 00:28:46;;;;;;;31.23;24.72;;;24.10;90.60;;;;;;1853259;76;21555;-75
2022/11/07 00:31:18;;;;;;;35.48;26.65;;;23.90;90.30;;;;;;1857983;76;21166;-76
2022/11/07 00:33:49;;;;;;;31.20;25.48;;;23.90;89.90;;;;;;1885150;76;21135;-76
2022/11/07 00:36:26;;;;;;;29.48;25.08;;;23.90;89.40;;;;;;1880355;76;21232;-77
2022/11/07 00:38:57;;;;;;;;;;;24.00;88.80;;;;;;1857697;76;21640;-76
2022/11/07 00:41:28;;;;;;;30.92;25.12;;;24.10;88.20;;;;;;1811805;79;20256;-75
2022/11/07 00:44:00;;;;;;;35.68;25.60;;;24.10;87.70;;;;;;1853015;76;21182;-75
2022/11/07 00:46:31;;;;;;;29.42;25.05;;;24.10;87.70;;;;;;1857079;76;21084;-76
2022/11/07 00:49:02;;;;;;;28.95;24.12;;;24.20;87.00;;;;;;1822464;78;21248;-76
2022/11/07 00:51:33;;;;;;;31.52;24.30;;;24.20;86.30;;;;;;1851846;76;21126;-73
2022/11/07 00:54:05;;;;;;;33.30;25.00;;;24.20;86.40;;;;;;1871966;76;21590;-74
2022/11/07 00:56:36;;;;;;;34.88;25.43;;;24.30;86.10;;;;;;1852257;77;21155;-75
2022/11/07 00:59:07;;;;;;;29.30;24.65;;;24.40;86.10;;;;;;1851721;77;21183;-76
2022/11/07 01:01:39;;;;;;;31.02;24.40;;;24.40;86.00;;;;;;1865825;76;21163;-74
2022/11/07 01:07:03;;;;;;;32.63;23.42;;;24.60;85.00;;;;;;1851212;76;21603;-75
2022/11/07 01:09:34;;;;;;;27.58;21.60;;;24.60;84.30;;;;;;1870500;76;21085;-75
2022/11/07 01:12:05;;;;;;;26.12;20.92;;;24.60;83.50;;;;;;1864471;76;21204;-75
2022/11/07 01:14:37;;;;;;;31.52;22.48;;;24.60;82.50;;;;;;1858095;76;21130;-75
2022/11/07 01:17:07;;;;;;;25.20;20.97;;;24.70;81.80;;;;;;1876468;76;21127;-76
2022/11/07 01:19:39;;;;;;;28.00;22.40;;;24.70;82.20;;;;;;1861922;76;21225;-75
2022/11/07 01:22:11;;;;;;;27.10;21.50;;;24.70;82.50;;;;;;1865509;76;21075;-74
2022/11/07 01:24:42;;;;;;;27.02;22.58;;;24.80;82.30;;;;;;1861679;76;21178;-74
2022/11/07 01:27:13;;;;;;;27.50;22.20;;;24.90;81.90;;;;;;1861439;76;21197;-76
2022/11/07 01:29:44;;;;;;;28.12;22.32;;;24.90;81.40;;;;;;1862718;76;21127;-74
2022/11/07 01:32:15;;;;;;;32.10;23.32;;;25.00;81.70;;;;;;1848368;76;21217;-75
2022/11/07 01:34:46;;;;;;;32.25;24.23;;;25.00;81.10;;;;;;1852769;76;21209;-75
2022/11/07 01:37:17;;;;;;;32.55;23.05;;;25.00;81.10;;;;;;1862827;76;21168;-76
2022/11/07 01:39:48;;;;;;;29.95;24.07;;;25.20;81.70;;;;;;1868217;76;21131;-76
2022/11/07 01:42:19;;;;;;;32.30;27.32;;;25.10;82.40;;;;;;1870458;76;21102;-76
2022/11/07 01:44:56;;;;;;;30.57;24.98;;;25.20;81.50;;;;;;1854525;76;21154;-76
2022/11/07 01:47:35;;;;;;;28.62;22.50;;;25.20;80.80;;;;;;1853256;76;21099;-75
2022/11/07 01:50:07;;;;;;;33.80;26.87;;;25.20;81.60;;;;;;1857465;76;21190;-76
2022/11/07 01:52:41;;;;;;;27.13;23.70;;;25.20;83.20;;;;;;1850588;76;21240;-76
2022/11/07 01:55:23;;;;;;;27.95;23.85;;;25.30;84.70;;;;;;1859835;76;21178;-75
2022/11/07 01:57:59;;;;;;;27.82;23.47;;;25.30;84.30;;;;;;1866588;76;21237;-75
2022/11/07 02:00:32;;;;;;;28.10;21.68;;;25.30;84.60;;;;;;1864061;76;21648;-75
2022/11/07 02:03:08;;;;;;;26.42;19.85;;;25.40;84.00;;;;;;1868577;76;21224;-74
2022/11/07 02:05:56;;;;;;;26.70;20.97;;;25.40;83.30;;;;;;1871849;76;21151;-76
2022/11/07 02:08:30;;;;;;;25.68;20.95;;;25.50;83.50;;;;;;1860079;76;21520;-77
2022/11/07 02:11:02;;;;;;;28.83;23.02;;;25.60;83.90;;;;;;1855422;76;21123;-76
2022/11/07 02:13:34;;;;;;;29.18;23.92;;;25.80;84.50;;;;;;1864965;76;21603;-75
2022/11/07 02:16:07;;;;;;;22.87;18.82;;;25.70;85.70;;;;;;1856538;76;21135;-75
2022/11/07 02:19:01;;;;;;;27.60;19.35;;;25.80;89.70;;;;;;1849554;76;21143;-75
2022/11/07 02:21:44;;;;;;;23.35;19.92;;;25.90;90.00;;;;;;1865913;76;21661;-75
2022/11/07 02:24:35;;;;;;;26.60;22.37;;;26.00;91.20;;;;;;1857672;76;21487;-75
2022/11/07 02:27:09;;;;;;;27.48;22.37;;;26.00;93.50;;;;;;1754221;80;21792;-76
2022/11/07 02:29:44;;;;;;;25.77;20.52;;;26.00;91.60;;;;;;1756822;80;21123;-75
2022/11/07 02:32:19;;;;;;;28.38;21.42;;;26.10;92.40;;;;;;1757336;80;21621;-74
2022/11/07 02:35:08;;;;;;;24.57;21.35;;;26.10;90.20;;;;;;1755337;80;21813;-75
2022/11/07 02:37:40;;;;;;;25.25;19.37;;;26.10;91.20;;;;;;1744480;80;21630;-75
2022/11/07 02:40:11;;;;;;;21.02;18.82;;;26.40;91.30;;;;;;1766938;80;21267;-75
2022/11/07 02:42:45;;;;;;;24.37;21.23;;;26.50;91.00;;;;;;1746387;80;21149;-76
2022/11/07 02:45:18;;;;;;;24.75;20.52;;;26.50;91.80;;;;;;1759496;80;21634;-74
2022/11/07 02:47:49;;;;;;;27.32;21.40;;;26.60;86.90;;;;;;1751529;81;21182;-75
2022/11/07 02:50:20;;;;;;;25.95;20.62;;;26.70;88.80;;;;;;1765688;80;21182;-74
2022/11/07 02:52:51;;;;;;;28.57;22.07;;;26.50;90.00;;;;;;1747852;80;21159;-75
2022/11/07 02:55:23;;;;;;;28.27;21.57;;;26.60;90.20;;;;;;1751729;80;21142;-76
2022/11/07 02:57:54;;;;;;;25.57;20.68;;;26.50;90.40;;;;;;1748972;80;21669;-75
2022/11/07 03:00:25;;;;;;;23.40;20.90;;;26.60;90.70;;;;;;1750755;80;21193;-75
2022/11/07 03:02:57;;;;;;;26.60;20.70;;;26.90;90.80;;;;;;1755136;80;21689;-75
2022/11/07 03:05:28;;;;;;;27.82;21.90;;;26.80;90.90;;;;;;1754774;80;21313;-75
2022/11/07 03:07:59;;;;;;;31.10;22.50;;;26.80;91.10;;;;;;1702876;83;21195;-75
2022/11/07 03:10:32;;;;;;;26.05;21.62;;;27.10;91.00;;;;;;1752427;80;21118;-75
2022/11/07 03:13:26;;;;;;;24.07;19.80;;;27.30;90.70;;;;;;1807259;78;21151;-75
2022/11/07 03:15:58;;;;;;;27.10;21.97;;;27.30;90.10;;;;;;1746900;81;21121;-74
2022/11/07 03:18:29;;;;;;;27.62;20.65;;;27.40;90.70;;;;;;1715789;82;21236;-76
2022/11/07 03:21:00;;;;;;;22.80;18.90;;;27.50;90.10;;;;;;1743199;81;21190;-75
2022/11/07 03:23:32;;;;;;;22.75;19.20;;;27.60;86.60;;;;;;1750363;81;21122;-76
2022/11/07 03:26:06;;;;;;;23.62;18.25;;;27.70;84.40;;;;;;1748339;81;21239;-75
2022/11/07 03:31:28;;;;;;;23.40;18.82;;;27.80;84.20;;;;;;1712399;84;21236;-76
2022/11/07 03:33:59;;;;;;;22.55;18.27;;;27.90;83.20;;;;;;1712956;82;21249;-76
2022/11/07 03:36:30;;;;;;;21.60;18.30;;;28.00;82.40;;;;;;1674679;84;21240;-76
2022/11/07 03:39:01;;;;;;;19.73;17.37;;;28.00;80.50;;;;;;1711576;82;21222;-76
2022/11/07 03:41:33;;;;;;;20.12;17.95;;;28.20;79.60;;;;;;1669677;86;21185;-76
2022/11/07 03:44:04;;;;;;;21.20;17.62;;;28.20;68.50;;;;;;1709705;83;21348;-75
2022/11/07 03:46:35;;;;;;;21.05;18.50;;;28.30;68.40;;;;;;1675379;84;21209;-75
2022/11/07 03:49:06;;;;;;;21.70;17.85;;;28.40;67.10;;;;;;1714491;83;21111;-76
2022/11/07 03:51:37;;;;;;;19.40;17.12;;;28.50;66.80;;;;;;1668185;86;21171;-75
2022/11/07 03:54:09;;;;;;;20.35;17.67;;;28.60;67.60;;;;;;1710792;83;21707;-75
2022/11/07 03:56:40;;;;;;;20.88;18.60;;;28.60;66.90;;;;;;1702567;83;21165;-75
2022/11/07 03:59:11;;;;;;;23.90;18.37;;;28.60;67.70;;;;;;1669556;86;21209;-76
2022/11/07 04:01:43;;;;;;;24.52;18.95;;;28.70;67.30;;;;;;1708993;82;21291;-75
2022/11/07 04:04:14;;;;;;;22.77;18.52;;;28.80;67.10;;;;;;1667517;84;21185;-75
2022/11/07 04:06:45;;;;;;;20.70;18.30;;;28.90;67.50;;;;;;1709049;82;21273;-77
2022/11/07 04:09:16;;;;;;;21.62;17.48;;;28.90;66.50;;;;;;1709917;82;21145;-75
2022/11/07 04:17:27;;;;;;;24.37;18.50;;;29.30;65.20;;;;;;1712424;82;21198;-72
2022/11/07 04:19:58;;;;;;;23.75;19.05;;;29.40;65.60;;;;;;1661284;86;21228;-75
2022/11/07 04:22:29;;;;;;;24.07;18.85;;;29.50;65.50;;;;;;1711036;82;21215;-73
2022/11/07 04:25:01;;;;;;;24.37;18.42;;;29.60;65.10;;;;;;1704191;83;21305;-75
2022/11/07 04:27:45;;;;;;;20.88;18.23;;;29.70;64.80;;;;;;1672139;84;21179;-76
2022/11/07 04:30:18;;;;;;;25.25;18.95;;;29.70;65.50;;;;;;1717269;81;21165;-73
2022/11/07 04:32:51;;;;;;;25.62;18.50;;;29.80;65.60;;;;;;1740691;81;21179;-73
2022/11/07 04:35:24;;;;;;;20.75;18.55;;;29.80;65.60;;;;;;1737573;82;21242;-75
2022/11/07 04:37:56;;;;;;;20.97;18.73;;;29.90;65.00;;;;;;1739141;82;21747;-74
2022/11/07 04:40:28;;;;;;;22.20;18.05;;;29.90;64.50;;;;;;1739415;82;21267;-75
2022/11/07 04:42:59;;;;;;;20.48;17.70;;;30.00;64.20;;;;;;1744014;81;21799;-74
2022/11/07 04:45:31;;;;;;;19.98;17.30;;;30.00;63.40;;;;;;1738973;81;21650;-76
2022/11/07 04:48:02;;;;;;;22.02;17.23;;;30.10;62.20;;;;;;1739152;81;21156;-75
2022/11/07 04:50:33;;;;;;;19.75;17.30;;;30.10;62.70;;;;;;1734073;82;21889;-75
2022/11/07 04:53:05;;;;;;;20.00;17.10;;;30.20;63.20;;;;;;1737274;81;21104;-74
2022/11/07 04:55:37;;;;;;;19.50;17.40;;;30.20;62.90;;;;;;1738948;81;21105;-74
2022/11/07 04:58:08;;;;;;;21.10;17.17;;;30.20;63.60;;;;;;1742544;81;21173;-74
2022/11/07 05:00:39;;;;;;;20.35;17.37;;;30.20;62.80;;;;;;1749493;81;21182;-77
2022/11/07 05:03:10;;;;;;;19.02;17.00;;;30.30;62.30;;;;;;1744648;81;21215;-76
2022/11/07 05:05:42;;;;;;;21.37;17.15;;;30.30;62.60;;;;;;1738300;81;21218;-76
2022/11/07 05:08:13;;;;;;;20.05;16.87;;;30.40;62.90;;;;;;1741805;81;21158;-76
2022/11/07 05:10:44;;;;;;;20.68;17.55;;;30.40;63.40;;;;;;1744169;81;21140;-75
2022/11/07 05:13:17;;;;;;;24.67;17.50;;;30.40;62.20;;;;;;1744061;81;21157;-76
2022/11/07 05:15:50;;;;;;;21.55;17.20;;;30.50;62.00;;;;;;1739237;82;21165;-76
2022/11/07 05:18:23;;;;;;;20.95;17.17;;;30.50;60.50;;;;;;1738985;82;21266;-76
2022/11/07 05:20:54;;;;;;;20.52;17.37;;;30.50;60.30;;;;;;1738312;81;21810;-76
2022/11/07 05:23:27;;;;;;;20.45;17.40;;;30.50;61.00;;;;;;1738685;81;21188;-76
2022/11/07 05:25:58;;;;;;;21.95;17.35;;;30.50;61.90;;;;;;1732408;81;21628;-76
2022/11/07 05:28:32;;;;;;;23.60;18.75;;;30.50;61.70;;;;;;1735715;81;21167;-76
2022/11/07 05:31:06;;;;;;;21.10;16.95;;;30.60;61.10;;;;;;1738543;81;21907;-77
2022/11/07 05:33:37;;;;;;;19.20;16.85;;;30.60;60.30;;;;;;1742433;80;21651;-77
2022/11/07 05:36:14;;;;;;;22.00;17.67;;;30.70;60.40;;;;;;1760003;80;21166;-74
2022/11/07 05:38:46;;;;;;;21.60;17.48;;;30.80;60.40;;;;;;1744575;81;21230;-75
2022/11/07 05:41:24;;;;;;;21.23;16.87;;;30.80;60.40;;;;;;1714632;82;21721;-75
2022/11/07 05:43:55;;;;;;;18.82;16.82;;;30.90;60.30;;;;;;1717403;82;21188;-77
2022/11/07 05:46:27;;;;;;;19.73;17.65;;;31.00;59.80;;;;;;1751703;80;21073;-77
2022/11/07 05:48:57;;;;;;;19.23;16.50;;;31.00;60.00;;;;;;1746286;81;21517;-76
2022/11/07 05:51:30;;;;;;;22.20;17.75;;;31.00;60.20;;;;;;1738898;80;21167;-77
2022/11/07 05:54:02;;;;;;;22.85;18.40;;;31.00;59.90;;;;;;1746500;81;21119;-76
2022/11/07 05:56:36;;;;;;;21.35;17.20;;;31.00;60.40;;;;;;1741023;81;21195;-75
2022/11/07 05:59:06;;;;;;;21.27;18.02;;;31.00;61.50;;;;;;1740874;81;21280;-75
2022/11/07 06:01:38;;;;;;;20.57;16.97;;;31.00;60.40;;;;;;1743309;81;21200;-78
2022/11/07 06:04:09;;;;;;;20.12;17.57;;;31.00;60.60;;;;;;1745609;81;21234;-77
2022/11/07 06:06:43;;;;;;;19.00;16.50;;;31.00;60.70;;;;;;1743069;80;21222;-76
2022/11/07 06:09:14;;;;;;;20.70;17.30;;;31.00;60.90;;;;;;1733542;81;21610;-75
2022/11/07 06:11:46;;;;;;;19.80;17.23;;;31.10;59.80;;;;;;1740564;81;21258;-76
2022/11/07 06:14:17;;;;;;;21.75;17.02;;;31.10;59.70;;;;;;1740383;81;21163;-75
2022/11/07 06:16:48;;;;;;;19.90;16.75;;;31.10;59.90;;;;;;1741099;81;21143;-75
2022/11/07 06:19:19;;;;;;;19.67;17.17;;;31.00;60.10;;;;;;1749064;80;21185;-75
2022/11/07 06:21:50;;;;;;;19.02;16.82;;;30.90;60.00;;;;;;1746607;80;21202;-75
2022/11/07 06:24:21;;;;;;;21.15;17.52;;;31.00;60.50;;;;;;1742833;80;21144;-74
2022/11/07 06:26:53;;;;;;;26.85;17.37;;;31.00;59.70;;;;;;1741131;81;21210;-75
2022/11/07 06:29:24;;;;;;;26.05;18.92;;;31.00;59.60;;;;;;1747741;80;21519;-76
2022/11/07 06:31:58;;;;;;;20.10;17.02;;;31.10;59.70;;;;;;1740205;80;21226;-73
2022/11/07 06:34:31;;;;;;;22.37;18.52;;;31.20;59.70;;;;;;1735528;81;21633;-74
2022/11/07 06:37:02;;;;;;;20.05;17.92;;;31.20;59.80;;;;;;1735291;81;21195;-74
2022/11/07 06:39:32;;;;;;;25.65;17.05;;;31.20;60.10;;;;;;1738534;81;21262;-75
2022/11/07 06:42:03;;;;;;;24.72;17.65;;;31.20;59.20;;;;;;1748872;81;21198;-75
2022/11/07 06:44:35;;;;;;;20.08;17.35;;;31.10;59.60;;;;;;1738202;81;21197;-76
2022/11/07 06:47:06;;;;;;;22.77;17.32;;;31.10;59.80;;;;;;1745195;81;21164;-75
2022/11/07 06:49:41;;;;;;;19.82;16.80;;;31.10;59.50;;;;;;1740352;81;21135;-74
2022/11/07 06:52:15;;;;;;;22.07;18.37;;;31.00;59.80;;;;;;1742217;81;21116;-75
2022/11/07 06:54:46;;;;;;;22.65;17.85;;;31.00;60.00;;;;;;1745303;81;21157;-76
2022/11/07 06:57:20;;;;;;;19.00;17.07;;;31.00;59.70;;;;;;1742105;81;21159;-76
2022/11/07 06:59:51;;;;;;;21.37;16.93;;;31.10;58.90;;;;;;1738268;81;21188;-74
2022/11/07 07:02:22;;;;;;;19.70;17.27;;;31.10;59.10;;;;;;1739902;81;21163;-75
2022/11/07 07:04:55;;;;;;;19.52;17.12;;;31.10;59.10;;;;;;1740936;81;21182;-75
2022/11/07 07:07:29;;;;;;;19.57;16.62;;;31.10;59.40;;;;;;1741596;81;21743;-75
2022/11/07 07:10:00;;;;;;;21.12;17.52;;;31.10;59.30;;;;;;1742247;81;21445;-76
2022/11/07 07:12:31;;;;;;;18.92;16.90;;;31.10;58.80;;;;;;1738890;82;21211;-75
2022/11/07 07:15:02;;;;;;;19.70;16.87;;;31.10;59.80;;;;;;1740942;82;21655;-76
2022/11/07 07:17:35;;;;;;;20.43;17.00;;;31.10;59.50;;;;;;1737533;81;21323;-77
2022/11/07 07:20:11;;;;;;;21.23;17.05;;;31.10;59.10;;;;;;1736820;81;21137;-76
2022/11/07 07:22:41;;;;;;;22.05;17.55;;;31.00;59.30;;;;;;1736962;81;21114;-77
2022/11/07 07:25:16;;;;;;;19.23;17.12;;;31.00;59.60;;;;;;1753843;81;21183;-76
2022/11/07 07:27:48;;;;;;;18.55;16.00;;;30.90;59.40;;;;;;1738073;81;21257;-74
2022/11/07 07:30:20;;;;;;;19.30;16.87;;;30.90;59.50;;;;;;1740591;81;21121;-76
2022/11/07 07:32:56;;;;;;;20.10;17.48;;;30.90;59.60;;;;;;1742349;80;21178;-75
2022/11/07 07:35:27;;;;;;;18.92;16.93;;;30.90;60.20;;;;;;1737745;82;21225;-76
2022/11/07 07:38:01;;;;;;;19.20;17.23;;;30.90;59.20;;;;;;1739519;81;21208;-78
2022/11/07 07:40:35;;;;;;;20.37;16.87;;;30.90;59.70;;;;;;1734169;81;21162;-76
2022/11/07 07:43:06;;;;;;;22.45;17.23;;;30.90;60.00;;;;;;1736592;81;21729;-75
2022/11/07 07:45:37;;;;;;;19.25;17.05;;;30.90;60.60;;;;;;1739681;81;21143;-77
2022/11/07 07:48:08;;;;;;;20.15;16.57;;;30.90;59.60;;;;;;1742967;81;21526;-76
2022/11/07 07:50:39;;;;;;;20.10;17.07;;;30.90;59.40;;;;;;1728487;82;21234;-76
2022/11/07 07:53:11;;;;;;;19.80;17.02;;;30.90;59.50;;;;;;1725043;82;21175;-77
2022/11/07 07:55:45;;;;;;;20.80;16.77;;;30.90;59.80;;;;;;1734282;81;21115;-77
2022/11/07 07:58:22;;;;;;;21.15;17.37;;;30.90;59.70;;;;;;1738998;82;21199;-75
2022/11/07 08:00:53;;;;;;;20.27;17.15;;;30.80;59.90;;;;;;1739336;81;21210;-77
2022/11/07 08:03:25;;;;;;;19.95;17.50;;;30.80;59.90;;;;;;1737851;82;21172;-76
2022/11/07 08:05:58;;;;;;;22.02;17.25;;;30.90;59.90;;;;;;1740238;81;21285;-75
2022/11/07 08:08:29;;;;;;;25.20;17.32;;;30.90;59.80;;;;;;1739207;81;21126;-77
2022/11/07 08:11:06;;;;;;;20.55;17.32;;;30.90;60.40;;;;;;1737702;81;21151;-76
2022/11/07 08:13:38;;;;;;;19.37;17.37;;;30.90;59.80;;;;;;1733663;82;21196;-76
2022/11/07 08:16:09;;;;;;;20.45;16.77;;;31.00;59.60;;;;;;1740364;82;21171;-77
2022/11/07 08:18:40;;;;;;;21.17;16.48;;;30.90;59.50;;;;;;1734320;82;21185;-77
2022/11/07 08:21:11;;;;;;;19.32;17.25;;;30.90;59.40;;;;;;1741857;81;21168;-76
2022/11/07 08:23:42;;;;;;;20.72;16.77;;;30.90;59.30;;;;;;1735566;82;21168;-75
2022/11/07 08:26:13;;;;;;;18.62;16.62;;;30.90;59.30;;;;;;1739827;82;21730;-75
2022/11/07 08:28:45;;;;;;;19.02;16.55;;;30.90;59.20;;;;;;1732838;82;21176;-76
2022/11/07 08:31:17;;;;;;;19.10;16.93;;;30.80;59.10;;;;;;1739410;81;21136;-75
2022/11/07 08:33:48;;;;;;;21.70;16.42;;;30.90;59.40;;;;;;1737844;82;21937;-76
2022/11/07 08:36:19;;;;;;;19.10;16.85;;;30.80;58.80;;;;;;1733843;81;21604;-75
2022/11/07 08:38:50;;;;;;;22.27;17.50;;;30.80;59.20;;;;;;1738432;81;21153;-76
2022/11/07 08:41:21;;;;;;;19.48;17.40;;;30.90;59.30;;;;;;1741576;81;21646;-77
2022/11/07 08:43:52;;;;;;;19.17;17.10;;;30.90;58.90;;;;;;1736100;81;21191;-77
2022/11/07 08:46:24;;;;;;;20.00;16.87;;;30.90;59.60;;;;;;1728229;82;21151;-77
2022/11/07 08:48:55;;;;;;;19.73;17.50;;;30.90;59.40;;;;;;1734178;81;21259;-75
2022/11/07 08:51:25;;;;;;;19.12;17.15;;;30.90;59.50;;;;;;1735761;82;21200;-76
2022/11/07 08:53:57;;;;;;;20.52;16.52;;;30.90;59.60;;;;;;1743494;81;21129;-77
2022/11/07 08:56:30;;;;;;;19.50;17.40;;;30.80;59.60;;;;;;1740326;81;21712;-76
2022/11/07 08:59:01;;;;;;;17.90;16.07;;;30.80;59.60;;;;;;1735995;81;21336;-76
2022/11/07 09:01:32;;;;;;;21.30;16.97;;;30.80;59.60;;;;;;1739601;81;21639;-76
2022/11/07 09:04:04;;;;;;;21.65;17.30;;;30.80;59.40;;;;;;1743135;81;21122;-75
2022/11/07 09:06:35;;;;;;;18.98;15.93;;;30.80;59.50;;;;;;1743302;81;21100;-77
2022/11/07 09:09:06;;;;;;;22.87;17.20;;;30.80;59.60;;;;;;1740978;81;21129;-76
2022/11/07 09:11:39;;;;;;;18.98;16.90;;;30.80;59.70;;;;;;1743149;80;21121;-75
2022/11/07 09:14:10;;;;;;;22.70;16.95;;;30.80;59.80;;;;;;1740573;82;21224;-74
2022/11/07 09:16:42;;;;;;;19.20;16.52;;;30.70;59.60;;;;;;1740417;81;21208;-76
2022/11/07 09:19:13;;;;;;;18.70;16.70;;;30.70;59.50;;;;;;1740809;81;21152;-75
2022/11/07 09:21:44;;;;;;;20.65;17.17;;;30.60;59.70;;;;;;1734674;82;21342;-76
2022/11/07 09:24:15;;;;;;;21.45;16.93;;;30.60;59.90;;;;;;1742343;81;21217;-75
2022/11/07 09:26:46;;;;;;;18.95;16.95;;;30.50;59.90;;;;;;1739732;82;21589;-76
2022/11/07 09:29:19;;;;;;;20.55;17.52;;;30.50;59.50;;;;;;1733219;82;21152;-74
2022/11/07 09:31:50;;;;;;;19.37;17.32;;;30.50;59.50;;;;;;1736208;81;21141;-77
2022/11/07 09:34:21;;;;;;;19.35;17.15;;;30.40;59.40;;;;;;1741393;82;21660;-77
2022/11/07 09:36:52;;;;;;;18.32;16.27;;;30.40;59.40;;;;;;1739505;82;21125;-76
2022/11/07 09:39:23;;;;;;;21.85;16.87;;;30.30;59.80;;;;;;1739733;82;21145;-78
2022/11/07 09:42:19;;;;;;;18.48;16.50;;;30.30;59.90;;;;;;1735979;82;21641;-76
2022/11/07 09:44:55;;;;;;;18.98;16.32;;;30.20;59.90;;;;;;1693824;81;21236;-75
2022/11/07 09:47:33;;;;;;;;;;;30.20;59.90;;;;;;1735243;82;21718;-76
2022/11/07 09:50:12;;;;;;;21.65;17.73;;;30.20;60.20;;;;;;1741402;82;20505;-75
2022/11/07 09:52:49;;;;;;;19.42;17.42;;;30.10;60.60;;;;;;1738144;81;21236;-76
2022/11/07 09:55:28;;;;;;;20.45;17.55;;;30.10;60.50;;;;;;1729744;82;21592;-77
2022/11/07 09:58:07;;;;;;;20.80;17.42;;;30.10;60.40;;;;;;1747452;82;21204;-75
2022/11/07 10:00:40;;;;;;;22.65;18.07;;;30.10;60.70;;;;;;1738868;82;21300;-77
2022/11/07 10:03:11;;;;;;;21.15;17.45;;;30.00;60.50;;;;;;1738912;82;21160;-76
2022/11/07 10:06:13;;;;;;;26.65;18.90;;;30.00;60.70;;;;;;1736095;81;21692;-78
2022/11/07 10:08:53;;;;;;;21.27;18.17;;;29.90;61.00;;;;;;1737670;82;21220;-76
2022/11/07 10:11:41;;;;;;;20.40;17.77;;;29.90;61.20;;;;;;1736861;81;21233;-76
2022/11/07 10:14:20;;;;;;;21.35;18.40;;;29.90;61.10;;;;;;1740985;81;21182;-76
2022/11/07 10:16:59;;;;;;;20.08;17.65;;;29.80;61.20;;;;;;1736396;81;21154;-76
2022/11/07 10:19:39;;;;;;;25.88;18.65;;;29.80;61.40;;;;;;1737310;81;21659;-76
2022/11/07 10:22:13;;;;;;;27.55;18.70;;;29.80;61.60;;;;;;1703486;81;21612;-76
2022/11/07 10:24:53;;;;;;;22.20;19.02;;;29.80;61.80;;;;;;1731853;82;21630;-76
2022/11/07 10:27:24;;;;;;;23.65;19.12;;;29.70;61.80;;;;;;1740215;82;22345;-75
2022/11/07 10:29:55;;;;;;;23.57;19.77;;;29.70;62.00;;;;;;1740623;81;21286;-75
2022/11/07 10:32:29;;;;;;;26.75;20.75;;;29.70;62.40;;;;;;1733452;82;21117;-76
2022/11/07 10:35:15;;;;;;;24.63;21.52;;;29.60;62.50;;;;;;1743735;81;21650;-77
2022/11/07 10:37:57;;;;;;;24.85;19.60;;;29.60;62.70;;;;;;1749222;81;21175;-77
2022/11/07 10:40:32;;;;;;;26.12;19.80;;;29.50;62.90;;;;;;1746217;81;21181;-75
2022/11/07 10:43:09;;;;;;;29.48;20.85;;;29.60;63.00;;;;;;1755157;81;21291;-76
2022/11/07 10:45:40;;;;;;;25.45;21.15;;;29.50;63.20;;;;;;1747222;81;21624;-75
2022/11/07 10:48:13;;;;;;;30.05;22.25;;;29.50;63.60;;;;;;1753844;81;21248;-76
2022/11/07 10:50:57;;;;;;;25.72;21.45;;;29.40;64.00;;;;;;1742166;81;21256;-78
2022/11/07 10:53:26;;;;;;;26.95;21.30;;;29.40;64.70;;;;;;1738851;81;21783;-76
2022/11/07 10:55:59;;;;;;;27.95;21.50;;;29.40;65.00;;;;;;1738508;81;21700;-75
2022/11/07 10:58:32;;;;;;;24.23;20.75;;;29.40;65.30;;;;;;1746033;81;21121;-76
2022/11/07 11:01:08;;;;;;;28.02;21.87;;;29.30;65.70;;;;;;1719346;83;21213;-75
2022/11/07 11:03:43;;;;;;;27.48;22.75;;;29.30;66.40;;;;;;1677251;84;21630;-76
2022/11/07 11:06:23;;;;;;;25.03;21.27;;;29.20;66.30;;;;;;1692249;83;21293;-76
2022/11/07 11:08:54;;;;;;;27.95;22.10;;;29.20;66.50;;;;;;1681206;84;21222;-76
2022/11/07 11:11:33;;;;;;;27.22;22.98;;;29.20;67.00;;;;;;1686336;84;21724;-75
2022/11/07 11:14:12;;;;;;;25.52;21.52;;;29.20;67.10;;;;;;1764680;81;21168;-75
2022/11/07 11:16:44;;;;;;;27.10;21.25;;;29.10;66.80;;;;;;1755630;81;21135;-76
2022/11/07 11:19:20;;;;;;;27.82;21.77;;;29.10;67.20;;;;;;1761156;81;21220;-76
2022/11/07 11:21:59;;;;;;;33.38;23.50;;;29.10;67.20;;;;;;1744646;81;21270;-76
2022/11/07 11:24:36;;;;;;;30.27;22.40;;;29.10;67.40;;;;;;1743944;81;21187;-75
2022/11/07 11:27:14;;;;;;;30.45;22.22;;;29.00;67.30;;;;;;1746728;81;21278;-76
2022/11/07 11:29:51;;;;;;;33.45;23.20;;;29.00;67.30;;;;;;1742763;81;21113;-75
2022/11/07 11:32:25;;;;;;;27.45;21.97;;;29.00;67.50;;;;;;1748171;81;21294;-75
2022/11/07 11:35:04;;;;;;;26.90;22.13;;;29.00;67.80;;;;;;1753782;81;21247;-75
2022/11/07 11:37:38;;;;;;;27.55;22.52;;;29.00;68.10;;;;;;1733750;81;21228;-75
2022/11/07 11:40:13;;;;;;;29.82;22.90;;;28.90;68.20;;;;;;1749378;80;21162;-75
2022/11/07 11:43:01;;;;;;;25.82;21.55;;;28.90;68.30;;;;;;1750563;80;21664;-76
2022/11/07 11:45:44;;;;;;;29.35;23.40;;;28.90;68.50;;;;;;1748994;80;21712;-75
2022/11/07 11:48:47;;;;;;;32.55;24.18;;;28.80;68.70;;;;;;1753562;80;21227;-75
2022/11/07 11:51:45;;;;;;;35.25;28.23;;;28.80;68.90;;;;;;1753980;80;21788;-75
2022/11/07 11:54:17;;;;;;;35.08;28.00;;;28.80;69.20;;;;;;1752311;80;21172;-74
2022/11/07 11:56:59;;;;;;;36.17;25.30;;;28.70;69.60;;;;;;1753726;80;21210;-76
2022/11/07 11:59:45;;;;;;;37.58;26.73;;;28.70;70.20;;;;;;1742075;81;21191;-77
2022/11/07 12:02:36;;;;;;;36.65;25.32;;;28.70;70.50;;;;;;1745849;82;21221;-76
2022/11/07 12:05:25;;;;;;;43.42;27.62;;;28.70;70.40;;;;;;1742602;82;21241;-75
2022/11/07 12:08:18;;;;;;;30.10;25.82;;;28.60;70.50;;;;;;1737229;82;21200;-76
2022/11/07 12:10:52;;;;;;;38.20;27.27;;;28.70;70.80;;;;;;1742227;80;21195;-76
2022/11/07 12:13:29;;;;;;;40.78;27.50;;;28.60;71.00;;;;;;1740422;81;21205;-76
2022/11/07 12:16:09;;;;;;;35.68;25.23;;;28.60;71.20;;;;;;1739813;81;21221;-76
2022/11/07 12:19:17;;;;;;;33.20;25.88;;;28.60;71.20;;;;;;1743748;80;21203;-77
2022/11/07 12:21:51;;;;;;;36.07;28.20;;;28.60;71.20;;;;;;1741572;80;21245;-75
2022/11/07 12:24:39;;;;;;;39.23;27.02;;;28.60;71.10;;;;;;1744620;80;21632;-76
2022/11/07 12:27:15;;;;;;;32.40;27.42;;;28.60;71.00;;;;;;1741171;81;21181;-76
2022/11/07 12:30:05;;;;;;;33.58;26.20;;;28.60;71.00;;;;;;1741213;80;21260;-76
2022/11/07 12:32:50;;;;;;;37.88;27.70;;;28.60;71.50;;;;;;1745302;81;21170;-75
2022/11/07 12:35:31;;;;;;;35.70;27.70;;;28.60;71.20;;;;;;1745380;81;21802;-76
2022/11/07 12:38:17;;;;;;;37.60;28.92;;;28.50;71.30;;;;;;1739799;81;21238;-76
2022/11/07 12:41:00;;;;;;;37.93;28.05;;;28.60;71.40;;;;;;1742675;81;21158;-76
2022/11/07 12:43:34;;;;;;;33.28;25.55;;;28.50;71.20;;;;;;1741691;81;21123;-77
2022/11/07 12:46:39;;;;;;;34.53;26.97;;;28.50;71.20;;;;;;1743039;81;21179;-75
2022/11/07 12:49:45;;;;;;;37.55;27.37;;;28.50;71.30;;;;;;1746906;81;21233;-76
2022/11/07 12:52:24;;;;;;;35.95;27.05;;;28.40;71.00;;;;;;1743882;81;21209;-85
2022/11/07 12:55:04;;;;;;;33.08;27.55;;;28.50;71.20;;;;;;1751231;80;21196;-85
2022/11/07 12:57:37;;;;;;;36.15;27.60;;;28.40;71.30;;;;;;1745392;80;21161;-85
2022/11/07 13:00:17;;;;;;;33.53;28.00;;;28.40;71.40;;;;;;1745511;82;21263;-84
2022/11/07 13:03:10;;;;;;;38.20;29.77;;;28.40;71.40;;;;;;1752295;80;21128;-86
2022/11/07 13:06:14;;;;;;;36.80;28.40;;;28.40;71.40;;;;;;1746339;82;21243;-85
2022/11/07 13:09:08;;;;;;;42.53;30.05;;;28.40;72.20;;;;;;1747469;80;21271;-86
2022/11/07 13:11:53;;;;;;;36.60;28.87;;;28.30;71.80;;;;;;1744464;82;21827;-86
2022/11/07 13:14:29;;;;;;;35.25;27.50;;;28.30;71.60;;;;;;1744298;82;21734;-86
2022/11/07 13:17:23;;;;;;;33.63;27.50;;;28.30;71.60;;;;;;1736357;82;21165;-84